createdAt,value
2023-01-07T00:01:41.347Z,6.66
2023-01-07T00:04:12.227Z,6.60
2023-01-07T00:06:41.583Z,6.52
2023-01-07T00:09:13.070Z,6.53
2023-01-07T00:11:41.430Z,6.50
2023-01-07T00:14:11.572Z,6.50
2023-01-07T00:16:39.633Z,6.53
2023-01-07T00:19:08.447Z,6.50
2023-01-07T00:21:36.048Z,6.50
2023-01-07T00:24:06.014Z,6.48
2023-01-07T00:26:36.170Z,6.44
2023-01-07T00:29:05.194Z,6.44
2023-01-07T00:31:35.354Z,6.60
2023-01-07T00:34:03.215Z,6.51
2023-01-07T00:36:33.054Z,6.47
2023-01-07T00:39:04.889Z,6.52
2023-01-07T00:41:33.486Z,6.51
2023-01-07T00:44:02.017Z,6.44
2023-01-07T00:46:29.810Z,6.53
2023-01-07T00:48:57.547Z,6.41
2023-01-07T00:51:25.335Z,6.44
2023-01-07T00:53:52.709Z,6.40
2023-01-07T00:56:20.272Z,6.44
2023-01-07T00:58:47.772Z,6.35
2023-01-07T01:01:16.809Z,6.39
2023-01-07T01:03:45.744Z,6.39
2023-01-07T01:06:16.791Z,6.38
2023-01-07T01:08:46.149Z,6.32
2023-01-07T01:11:16.059Z,6.28
2023-01-07T01:13:43.738Z,6.47
2023-01-07T01:16:18.049Z,6.42
2023-01-07T01:18:45.781Z,6.44
2023-01-07T01:21:15.934Z,6.40
2023-01-07T01:23:44.166Z,6.35
2023-01-07T01:26:14.496Z,6.31
2023-01-07T01:28:43.391Z,6.25
2023-01-07T01:31:12.420Z,6.33
2023-01-07T01:33:45.780Z,6.30
2023-01-07T01:36:13.336Z,6.36
2023-01-07T01:38:41.811Z,6.33
2023-01-07T01:41:10.097Z,6.30
2023-01-07T01:43:42.623Z,6.31
2023-01-07T01:46:18.594Z,6.29
2023-01-07T01:49:27.473Z,6.32
2023-01-07T01:52:20.336Z,6.32
2023-01-07T01:54:58.331Z,6.30
2023-01-07T01:57:28.041Z,6.26
2023-01-07T01:59:58.568Z,6.26
2023-01-07T02:02:36.522Z,6.43
2023-01-07T02:05:05.224Z,6.30
2023-01-07T02:07:33.109Z,6.26
2023-01-07T02:10:10.694Z,6.24
2023-01-07T02:12:56.777Z,6.23
2023-01-07T02:15:52.375Z,6.25
2023-01-07T02:18:32.076Z,6.30
2023-01-07T02:21:06.512Z,6.30
2023-01-07T02:24:11.421Z,6.29
2023-01-07T02:26:57.378Z,6.28
2023-01-07T02:29:58.201Z,6.27
2023-01-07T02:32:37.872Z,6.27
2023-01-07T02:35:40.947Z,6.24
2023-01-07T02:38:22.599Z,6.17
2023-01-07T02:41:20.007Z,6.18
2023-01-07T02:44:19.203Z,6.17
2023-01-07T02:46:57.440Z,6.14
2023-01-07T02:49:24.874Z,6.31
2023-01-07T02:51:52.587Z,6.27
2023-01-07T02:54:29.354Z,6.26
2023-01-07T02:57:12.693Z,6.28
2023-01-07T02:59:43.088Z,6.27
2023-01-07T03:02:20.262Z,6.24
2023-01-07T03:05:33.902Z,6.35
2023-01-07T03:08:23.975Z,6.30
2023-01-07T03:11:04.142Z,6.25
2023-01-07T03:13:58.952Z,6.27
2023-01-07T03:16:35.073Z,6.23
2023-01-07T03:19:16.540Z,6.23
2023-01-07T03:21:48.580Z,6.19
2023-01-07T03:24:17.127Z,6.18
2023-01-07T03:26:49.452Z,6.13
2023-01-07T03:29:19.231Z,6.17
2023-01-07T03:31:57.596Z,6.20
2023-01-07T03:34:29.051Z,6.19
2023-01-07T03:37:01.521Z,6.38
2023-01-07T03:39:32.884Z,6.35
2023-01-07T03:42:18.943Z,6.28
2023-01-07T03:44:46.564Z,6.18
2023-01-07T03:47:14.922Z,6.17
2023-01-07T03:49:42.872Z,6.14
2023-01-07T03:52:10.850Z,6.32
2023-01-07T03:54:38.379Z,6.35
2023-01-07T03:57:06.667Z,6.54
2023-01-07T03:59:34.064Z,6.39
2023-01-07T04:02:01.862Z,6.32
2023-01-07T04:04:29.934Z,6.22
2023-01-07T04:06:58.230Z,6.23
2023-01-07T04:09:27.944Z,6.18
2023-01-07T04:11:57.032Z,6.11
2023-01-07T04:14:24.647Z,6.16
2023-01-07T04:16:52.258Z,6.11
2023-01-07T04:19:22.133Z,6.09
2023-01-07T04:21:49.683Z,6.04
2023-01-07T04:24:17.086Z,6.09
2023-01-07T04:26:44.855Z,6.08
2023-01-07T04:29:12.680Z,6.08
2023-01-07T04:31:40.163Z,6.06
2023-01-07T04:34:08.222Z,6.02
2023-01-07T04:36:36.319Z,6.02
2023-01-07T04:39:04.130Z,6.03
2023-01-07T04:41:32.041Z,6.03
2023-01-07T04:43:59.737Z,6.03
2023-01-07T04:46:27.960Z,6.08
2023-01-07T04:48:56.382Z,6.02
2023-01-07T04:51:26.596Z,6.03
2023-01-07T04:53:54.017Z,6.02
2023-01-07T04:56:21.499Z,6.06
2023-01-07T04:58:49.441Z,6.04
2023-01-07T05:01:18.345Z,6.05
2023-01-07T05:03:45.887Z,6.12
2023-01-07T05:06:14.599Z,6.13
2023-01-07T05:08:42.854Z,6.21
2023-01-07T05:11:14.046Z,6.15
2023-01-07T05:13:43.582Z,6.17
2023-01-07T05:16:11.640Z,6.15
2023-01-07T05:18:40.831Z,6.21
2023-01-07T05:21:10.617Z,6.21
2023-01-07T05:23:39.197Z,6.26
2023-01-07T05:26:06.998Z,6.27
2023-01-07T05:28:34.476Z,6.28
2023-01-07T05:31:02.882Z,6.29
2023-01-07T05:33:31.794Z,6.26
2023-01-07T05:35:59.171Z,6.29
2023-01-07T05:38:26.469Z,6.32
2023-01-07T05:40:54.845Z,6.34
2023-01-07T05:43:26.985Z,6.33
2023-01-07T05:45:56.162Z,6.30
2023-01-07T05:48:23.562Z,6.31
2023-01-07T05:50:50.877Z,6.32
2023-01-07T05:53:18.526Z,6.30
2023-01-07T05:55:45.862Z,6.30
2023-01-07T05:58:13.396Z,6.27
2023-01-07T06:00:40.883Z,6.18
2023-01-07T06:03:08.268Z,6.26
2023-01-07T06:05:36.487Z,6.33
2023-01-07T06:08:04.043Z,6.29
2023-01-07T06:10:31.822Z,6.29
2023-01-07T06:12:59.127Z,6.19
2023-01-07T06:15:26.912Z,6.21
2023-01-07T06:17:54.535Z,6.20
2023-01-07T06:20:22.850Z,6.17
2023-01-07T06:22:50.341Z,6.13
2023-01-07T06:25:18.175Z,6.20
2023-01-07T06:27:45.932Z,6.16
2023-01-07T06:30:13.736Z,6.17
2023-01-07T06:32:43.287Z,6.28
2023-01-07T06:35:12.061Z,6.27
2023-01-07T06:37:39.494Z,6.20
2023-01-07T06:40:07.867Z,6.17
2023-01-07T06:42:36.002Z,6.15
2023-01-07T06:45:04.502Z,6.08
2023-01-07T06:47:32.022Z,6.12
2023-01-07T06:49:59.359Z,6.09
2023-01-07T06:52:26.826Z,6.09
2023-01-07T06:54:54.262Z,6.14
2023-01-07T06:57:21.733Z,6.08
2023-01-07T06:59:49.103Z,6.09
2023-01-07T07:02:25.420Z,6.07
2023-01-07T07:04:53.438Z,6.07
2023-01-07T07:07:21.581Z,6.06
2023-01-07T07:09:50.696Z,6.07
2023-01-07T07:12:19.794Z,6.07
2023-01-07T07:14:49.089Z,6.08
2023-01-07T07:17:16.591Z,6.02
2023-01-07T07:19:45.073Z,6.05
2023-01-07T07:22:12.444Z,6.06
2023-01-07T07:24:40.856Z,6.11
2023-01-07T07:27:08.969Z,6.08
2023-01-07T07:29:36.407Z,6.13
2023-01-07T07:32:04.084Z,6.16
2023-01-07T07:34:31.683Z,6.15
2023-01-07T07:36:59.056Z,6.13
2023-01-07T07:39:27.069Z,6.17
2023-01-07T07:41:54.453Z,6.13
2023-01-07T07:44:22.959Z,6.18
2023-01-07T07:46:50.362Z,6.15
2023-01-07T07:49:17.837Z,6.30
2023-01-07T07:51:45.120Z,6.21
2023-01-07T07:54:12.525Z,6.15
2023-01-07T07:56:40.852Z,6.24
2023-01-07T07:59:08.343Z,6.19
2023-01-07T08:01:37.359Z,6.23
2023-01-07T08:04:05.213Z,6.28
2023-01-07T08:06:34.288Z,6.20
2023-01-07T08:09:01.710Z,6.16
2023-01-07T08:11:29.025Z,6.15
2023-01-07T08:13:57.150Z,6.17
2023-01-07T08:16:24.563Z,6.17
2023-01-07T08:18:51.905Z,6.14
2023-01-07T08:21:19.224Z,6.37
2023-01-07T08:23:46.684Z,6.31
2023-01-07T08:26:14.159Z,6.27
2023-01-07T08:28:41.458Z,6.23
2023-01-07T08:31:09.290Z,6.20
2023-01-07T08:33:38.667Z,6.19
2023-01-07T08:36:14.920Z,6.20
2023-01-07T08:38:53.731Z,6.25
2023-01-07T08:41:22.588Z,6.20
2023-01-07T08:43:50.490Z,6.29
2023-01-07T08:46:17.953Z,6.27
2023-01-07T08:48:45.401Z,6.24
2023-01-07T08:51:12.839Z,6.26
2023-01-07T08:53:40.339Z,6.58
2023-01-07T08:56:07.893Z,6.41
2023-01-07T08:58:35.362Z,6.42
2023-01-07T09:01:05.997Z,6.46
2023-01-07T09:03:34.483Z,6.50
2023-01-07T09:06:01.992Z,6.48
2023-01-07T09:08:29.544Z,6.52
2023-01-07T09:10:56.871Z,6.54
2023-01-07T09:13:24.230Z,6.53
2023-01-07T09:15:52.769Z,6.60
2023-01-07T09:18:20.594Z,6.62
2023-01-07T09:20:48.195Z,6.65
2023-01-07T09:23:16.185Z,6.85
2023-01-07T09:25:43.620Z,6.85
2023-01-07T09:28:11.014Z,6.86
2023-01-07T09:30:38.494Z,6.89
2023-01-07T09:33:06.028Z,6.81
2023-01-07T09:35:33.577Z,6.85
2023-01-07T09:38:00.988Z,6.81
2023-01-07T09:40:32.339Z,6.79
2023-01-07T09:43:19.518Z,6.82
2023-01-07T09:45:49.505Z,6.99
2023-01-07T09:48:16.882Z,6.94
2023-01-07T09:50:53.060Z,6.98
2023-01-07T09:53:27.403Z,6.95
2023-01-07T09:56:12.019Z,7.10
2023-01-07T09:58:45.084Z,7.12
2023-01-07T10:01:27.103Z,6.87
2023-01-07T10:04:01.821Z,7.00
2023-01-07T10:06:53.426Z,6.94
2023-01-07T10:10:01.826Z,7.01
2023-01-07T10:12:57.483Z,6.97
2023-01-07T10:15:37.048Z,7.10
2023-01-07T10:18:19.193Z,7.02
2023-01-07T10:21:23.905Z,7.10
2023-01-07T10:24:10.758Z,7.09
2023-01-07T10:26:42.895Z,7.32
2023-01-07T10:29:15.589Z,7.25
2023-01-07T10:31:45.638Z,7.22
2023-01-07T10:34:16.734Z,7.32
2023-01-07T10:36:57.492Z,7.38
2023-01-07T10:39:24.776Z,7.27
2023-01-07T10:42:07.419Z,7.27
2023-01-07T10:45:03.745Z,7.33
2023-01-07T10:48:09.001Z,7.41
2023-01-07T10:50:50.365Z,7.48
2023-01-07T10:53:43.785Z,7.32
2023-01-07T10:56:21.908Z,7.31
2023-01-07T10:58:50.298Z,7.28
2023-01-07T11:01:40.027Z,7.32
2023-01-07T11:04:16.050Z,7.53
2023-01-07T11:06:52.525Z,7.51
2023-01-07T11:09:29.495Z,7.48
2023-01-07T11:14:46.772Z,7.57
2023-01-07T11:17:34.643Z,7.78
2023-01-07T11:20:02.676Z,7.72
2023-01-07T11:22:33.553Z,7.55
2023-01-07T11:25:03.006Z,7.52
2023-01-07T11:27:34.249Z,7.46
2023-01-07T11:30:25.958Z,7.56
2023-01-07T11:33:03.664Z,7.47
2023-01-07T11:35:31.533Z,7.44
2023-01-07T11:37:59.959Z,7.48
2023-01-07T11:40:31.606Z,7.48
2023-01-07T11:43:03.483Z,7.59
2023-01-07T11:45:36.974Z,7.43
2023-01-07T11:48:19.589Z,7.41
2023-01-07T11:51:02.343Z,7.59
2023-01-07T11:53:34.121Z,7.54
2023-01-07T11:56:21.224Z,7.43
2023-01-07T11:58:51.071Z,7.43
2023-01-07T12:01:23.752Z,7.46
2023-01-07T12:03:54.296Z,7.46
2023-01-07T12:06:21.618Z,7.48
2023-01-07T12:09:15.143Z,7.62
2023-01-07T12:11:44.424Z,7.63
2023-01-07T12:14:33.544Z,7.64
2023-01-07T12:17:21.831Z,7.62
2023-01-07T12:19:55.185Z,7.62
2023-01-07T12:22:44.448Z,7.65
2023-01-07T12:25:46.181Z,7.70
2023-01-07T12:28:18.518Z,7.74
2023-01-07T12:31:13.883Z,7.68
2023-01-07T12:34:02.587Z,7.59
2023-01-07T12:36:37.861Z,7.58
2023-01-07T12:39:15.892Z,7.71
2023-01-07T12:41:48.727Z,7.99
2023-01-07T12:44:22.803Z,7.81
2023-01-07T12:47:30.773Z,7.67
2023-01-07T12:50:06.249Z,7.60
2023-01-07T12:53:03.314Z,7.54
2023-01-07T12:55:49.437Z,7.49
2023-01-07T12:58:19.746Z,7.58
2023-01-07T13:01:04.234Z,7.50
2023-01-07T13:03:57.928Z,7.69
2023-01-07T13:06:53.190Z,7.74
2023-01-07T13:09:29.570Z,7.63
2023-01-07T13:12:40.723Z,7.46
2023-01-07T13:15:16.353Z,7.45
2023-01-07T13:17:44.077Z,7.43
2023-01-07T13:20:13.229Z,7.41
2023-01-07T13:22:49.515Z,7.43
2023-01-07T13:25:26.790Z,7.37
2023-01-07T13:28:16.661Z,7.35
2023-01-07T13:31:02.493Z,7.39
2023-01-07T13:34:08.049Z,7.45
2023-01-07T13:36:45.108Z,7.43
2023-01-07T13:39:47.868Z,7.35
2023-01-07T13:42:49.013Z,7.32
2023-01-07T13:45:21.878Z,7.32
2023-01-07T13:47:52.317Z,7.49
2023-01-07T13:50:24.935Z,7.41
2023-01-07T13:52:58.524Z,7.36
2023-01-07T13:55:28.998Z,7.36
2023-01-07T13:57:56.333Z,7.35
2023-01-07T14:00:40.869Z,7.38
2023-01-07T14:03:27.098Z,7.45
2023-01-07T14:06:19.733Z,7.31
2023-01-07T14:08:55.079Z,7.29
2023-01-07T14:11:32.507Z,7.28
2023-01-07T14:14:07.764Z,7.32
2023-01-07T14:16:49.166Z,7.29
2023-01-07T14:19:54.029Z,7.22
2023-01-07T14:22:46.548Z,7.25
2023-01-07T14:25:51.837Z,7.22
2023-01-07T14:28:44.252Z,7.21
2023-01-07T14:31:27.928Z,7.21
2023-01-07T14:33:58.572Z,7.25
2023-01-07T14:37:09.688Z,7.31
2023-01-07T14:39:45.230Z,7.34
2023-01-07T14:42:18.798Z,7.26
2023-01-07T14:44:52.850Z,7.23
2023-01-07T14:47:45.197Z,7.16
2023-01-07T14:50:43.098Z,7.18
2023-01-07T14:53:16.476Z,7.14
2023-01-07T14:56:04.787Z,7.15
2023-01-07T14:58:50.869Z,7.16
2023-01-07T15:01:52.052Z,7.17
2023-01-07T15:04:37.780Z,7.23
2023-01-07T15:07:13.290Z,7.16
2023-01-07T15:10:09.482Z,7.14
2023-01-07T15:13:12.927Z,7.17
2023-01-07T15:16:04.260Z,7.16
2023-01-07T15:18:42.611Z,7.16
2023-01-07T15:21:33.134Z,7.14
2023-01-07T15:24:22.486Z,7.14
2023-01-07T15:27:00.902Z,7.09
2023-01-07T15:29:42.427Z,7.18
2023-01-07T15:32:28.654Z,7.14
2023-01-07T15:34:57.012Z,7.12
2023-01-07T15:37:24.704Z,7.15
2023-01-07T15:39:57.832Z,7.11
2023-01-07T15:42:27.355Z,7.15
2023-01-07T15:44:58.014Z,7.15
2023-01-07T15:47:40.944Z,7.03
2023-01-07T15:50:25.779Z,6.98
2023-01-07T15:53:18.610Z,6.96
2023-01-07T15:55:48.943Z,6.99
2023-01-07T15:58:20.294Z,6.94
2023-01-07T16:00:52.573Z,6.92
2023-01-07T16:03:21.648Z,6.94
2023-01-07T16:05:49.497Z,6.92
2023-01-07T16:08:19.964Z,6.87
2023-01-07T16:11:09.090Z,6.90
2023-01-07T16:13:36.875Z,6.91
2023-01-07T16:16:06.643Z,6.92
2023-01-07T16:18:34.267Z,6.92
2023-01-07T16:21:08.366Z,6.85
2023-01-07T16:23:37.764Z,6.85
2023-01-07T16:26:13.076Z,6.86
2023-01-07T16:28:52.437Z,6.86
2023-01-07T16:31:22.764Z,6.89
2023-01-07T16:33:53.584Z,6.90
2023-01-07T16:36:23.926Z,6.88
2023-01-07T16:38:53.934Z,6.87
2023-01-07T16:41:26.964Z,6.88
2023-01-07T16:43:56.172Z,6.85
2023-01-07T16:46:37.163Z,6.87
2023-01-07T16:49:19.787Z,6.88
2023-01-07T16:52:02.405Z,6.85
2023-01-07T16:54:37.205Z,6.84
2023-01-07T16:57:10.794Z,6.88
2023-01-07T16:59:45.486Z,6.84
2023-01-07T17:02:52.325Z,6.84
2023-01-07T17:05:28.356Z,6.86
2023-01-07T17:08:01.056Z,6.86
2023-01-07T17:10:32.385Z,6.88
2023-01-07T17:13:14.801Z,6.88
2023-01-07T17:15:43.441Z,6.88
2023-01-07T17:18:17.019Z,6.85
2023-01-07T17:20:56.769Z,6.84
2023-01-07T17:23:27.469Z,6.81
2023-01-07T17:26:03.120Z,6.79
2023-01-07T17:28:34.425Z,6.76
2023-01-07T17:31:02.024Z,6.74
2023-01-07T17:33:30.079Z,6.74
2023-01-07T17:35:57.696Z,6.84
2023-01-07T17:38:25.233Z,6.75
2023-01-07T17:40:54.547Z,6.83
2023-01-07T17:43:33.727Z,6.71
2023-01-07T17:46:01.673Z,6.78
2023-01-07T17:48:29.444Z,6.90
2023-01-07T17:50:58.295Z,6.71
2023-01-07T17:53:30.735Z,6.66
2023-01-07T17:55:58.552Z,6.89
2023-01-07T17:58:34.655Z,6.74
2023-01-07T18:01:06.665Z,6.65
2023-01-07T18:03:34.368Z,6.63
2023-01-07T18:06:02.698Z,6.59
2023-01-07T18:08:30.168Z,6.52
2023-01-07T18:11:16.441Z,6.58
2023-01-07T18:13:43.933Z,6.73
2023-01-07T18:16:13.528Z,6.80
2023-01-07T18:18:41.044Z,6.64
2023-01-07T18:21:11.345Z,6.58
2023-01-07T18:23:38.911Z,6.77
2023-01-07T18:26:06.639Z,6.66
2023-01-07T18:28:34.266Z,6.69
2023-01-07T18:31:01.673Z,6.61
2023-01-07T18:33:29.146Z,6.56
2023-01-07T18:35:56.557Z,6.56
2023-01-07T18:38:24.043Z,6.53
2023-01-07T18:40:51.731Z,6.51
2023-01-07T18:43:19.440Z,6.52
2023-01-07T18:45:48.082Z,6.48
2023-01-07T18:48:18.236Z,6.48
2023-01-07T18:50:50.213Z,6.47
2023-01-07T18:53:19.054Z,6.47
2023-01-07T18:55:46.624Z,6.49
2023-01-07T18:58:15.307Z,6.54
2023-01-07T19:00:42.928Z,6.48
2023-01-07T19:03:11.057Z,6.52
2023-01-07T19:05:40.898Z,6.51
2023-01-07T19:08:08.461Z,6.50
2023-01-07T19:10:41.412Z,6.48
2023-01-07T19:13:08.910Z,6.48
2023-01-07T19:15:36.453Z,6.49
2023-01-07T19:18:04.075Z,6.46
2023-01-07T19:20:31.555Z,6.49
2023-01-07T19:23:01.164Z,6.49
2023-01-07T19:25:30.060Z,6.51
2023-01-07T19:27:58.064Z,6.50
2023-01-07T19:30:26.049Z,6.47
2023-01-07T19:32:54.487Z,6.46
2023-01-07T19:35:21.810Z,6.44
2023-01-07T19:37:50.176Z,6.43
2023-01-07T19:40:17.750Z,6.43
2023-01-07T19:42:45.277Z,6.41
2023-01-07T19:45:12.581Z,6.43
2023-01-07T19:47:40.047Z,6.40
2023-01-07T19:50:07.900Z,6.43
2023-01-07T19:52:35.430Z,6.47
2023-01-07T19:55:02.891Z,6.41
2023-01-07T19:57:30.976Z,6.42
2023-01-07T19:59:59.522Z,6.43
2023-01-07T20:02:27.372Z,6.42
2023-01-07T20:04:55.196Z,6.40
2023-01-07T20:07:22.906Z,6.42
2023-01-07T20:09:50.727Z,6.42
2023-01-07T20:12:19.874Z,6.44
2023-01-07T20:14:47.764Z,6.47
2023-01-07T20:17:15.346Z,6.48
2023-01-07T20:19:45.324Z,6.47
2023-01-07T20:22:12.944Z,6.47
2023-01-07T20:24:40.540Z,6.60
2023-01-07T20:27:08.160Z,6.53
2023-01-07T20:29:36.783Z,6.52
2023-01-07T20:32:07.444Z,6.52
2023-01-07T20:34:35.012Z,6.56
2023-01-07T20:37:02.649Z,6.52
2023-01-07T20:39:30.227Z,6.54
2023-01-07T20:41:59.875Z,6.52
2023-01-07T20:44:28.940Z,6.76
2023-01-07T20:46:57.218Z,7.08
2023-01-07T20:49:25.899Z,6.84
2023-01-07T20:52:16.551Z,6.70
2023-01-07T20:54:46.058Z,6.59
2023-01-07T20:57:16.376Z,6.54
2023-01-07T20:59:44.105Z,6.50
2023-01-07T21:02:17.072Z,6.63
2023-01-07T21:04:44.843Z,6.54
2023-01-07T21:07:12.499Z,6.71
2023-01-07T21:09:41.328Z,6.67
2023-01-07T21:12:10.233Z,6.55
2023-01-07T21:14:37.798Z,6.53
2023-01-07T21:17:06.843Z,6.49
2023-01-07T21:19:34.567Z,6.49
2023-01-07T21:22:02.023Z,6.54
2023-01-07T21:24:30.514Z,6.54
2023-01-07T21:26:58.679Z,6.52
2023-01-07T21:29:27.434Z,6.54
2023-01-07T21:31:55.219Z,6.53
2023-01-07T21:34:22.980Z,6.62
2023-01-07T21:36:50.662Z,6.52
2023-01-07T21:39:18.213Z,6.52
2023-01-07T21:41:45.603Z,6.53
2023-01-07T21:44:13.198Z,6.49
2023-01-07T21:46:40.891Z,6.44
2023-01-07T21:49:08.569Z,6.49
2023-01-07T21:51:35.876Z,6.47
2023-01-07T21:54:03.409Z,6.47
2023-01-07T21:56:32.722Z,6.36
2023-01-07T21:59:00.701Z,6.39
2023-01-07T22:01:29.520Z,6.39
2023-01-07T22:03:59.024Z,6.38
2023-01-07T22:06:30.793Z,6.38
2023-01-07T22:09:00.954Z,6.37
2023-01-07T22:11:28.941Z,6.37
2023-01-07T22:13:59.089Z,6.39
2023-01-07T22:16:29.765Z,6.37
2023-01-07T22:18:57.739Z,6.35
2023-01-07T22:21:25.609Z,6.38
2023-01-07T22:23:53.176Z,6.40
2023-01-07T22:26:21.473Z,6.39
2023-01-07T22:28:53.189Z,6.41
2023-01-07T22:31:27.025Z,6.38
2023-01-07T22:33:55.386Z,6.35
2023-01-07T22:36:31.695Z,6.44
2023-01-07T22:39:03.068Z,6.60
2023-01-07T22:41:33.800Z,6.50
2023-01-07T22:44:05.283Z,6.45
2023-01-07T22:46:36.463Z,6.63
2023-01-07T22:49:04.900Z,6.52
2023-01-07T22:51:40.257Z,6.47
2023-01-07T22:54:07.950Z,6.48
2023-01-07T22:56:35.658Z,6.44
2023-01-07T22:59:03.209Z,6.45
2023-01-07T23:01:31.978Z,6.41
2023-01-07T23:03:59.444Z,6.49
2023-01-07T23:06:28.637Z,6.45
2023-01-07T23:08:56.032Z,6.61
2023-01-07T23:11:41.930Z,6.60
2023-01-07T23:14:10.010Z,6.43
2023-01-07T23:16:37.582Z,6.38
2023-01-07T23:19:05.297Z,6.39
2023-01-07T23:21:33.032Z,6.40
2023-01-07T23:24:00.809Z,6.49
2023-01-07T23:26:28.310Z,6.41
2023-01-07T23:28:55.707Z,6.39
2023-01-07T23:31:23.292Z,6.41
2023-01-07T23:33:51.552Z,6.41
2023-01-07T23:36:18.986Z,6.41
2023-01-07T23:38:46.413Z,6.37
2023-01-07T23:41:13.916Z,6.37
2023-01-07T23:43:41.397Z,6.37
2023-01-07T23:46:10.424Z,6.35
2023-01-07T23:48:39.153Z,6.38
2023-01-07T23:51:10.500Z,6.37
2023-01-07T23:53:38.505Z,6.37
2023-01-07T23:56:07.247Z,6.38
2023-01-07T23:58:36.445Z,6.39
